Time;durP1;ratioP1;P1;durP2;ratioP2;P2;SDS_P1;SDS_P2;PMS_P1;PMS_P2;Temp;Humidity;BMP_temperature;BMP_pressure;BME280_temperature;BME280_humidity;BME280_pressure;Samples;Min_cycle;Max_cycle;Signal;HPM_P1;HPM_P2
2023/06/16 00:01:35;;;;;;;7.40;4.17;;;;;;;17.74;81.63;99098.69;5115527;28;20183;-77
2023/06/16 00:04:05;;;;;;;6.93;4.30;;;;;;;17.81;80.25;99101.66;5102346;28;20293;-77
2023/06/16 00:06:33;;;;;;;5.77;4.00;;;;;;;17.83;80.88;99101.50;5108028;28;20195;-77
2023/06/16 00:09:03;;;;;;;7.77;3.77;;;;;;;17.85;81.48;99103.03;5111414;28;20195;-77
2023/06/16 00:11:33;;;;;;;5.27;4.00;;;;;;;17.81;82.87;99106.16;5107805;28;20195;-77
2023/06/16 00:14:02;;;;;;;5.73;3.90;;;;;;;17.77;81.20;99104.78;5100666;28;20199;-77
2023/06/16 00:16:30;;;;;;;4.97;3.83;;;;;;;17.96;79.38;99099.38;5106016;28;20211;-77
2023/06/16 00:19:00;;;;;;;5.67;3.87;;;;;;;18.00;78.29;99108.78;5107997;28;20191;-77
2023/06/16 00:21:37;;;;;;;8.73;3.93;;;;;;;17.95;77.91;99108.38;5109963;28;20191;-77
2023/06/16 00:24:08;;;;;;;4.83;4.03;;;;;;;17.83;79.11;99113.06;5110819;28;20670;-77
2023/06/16 00:26:37;;;;;;;4.73;3.97;;;;;;;17.73;80.56;99118.44;5107646;28;20202;-77
2023/06/16 00:29:07;;;;;;;8.90;4.30;;;;;;;17.77;81.31;99118.19;5110490;28;20241;-77
2023/06/16 00:31:36;;;;;;;6.60;4.93;;;;;;;17.43;83.80;99110.56;5105742;28;20199;-77
2023/06/16 00:34:04;;;;;;;6.40;3.97;;;;;;;17.41;84.83;99109.88;5105045;28;20273;-77
2023/06/16 00:36:32;;;;;;;6.57;4.37;;;;;;;17.54;85.20;99109.56;5105974;28;20231;-77
2023/06/16 00:39:01;;;;;;;5.20;4.10;;;;;;;17.46;85.10;99104.94;5109458;28;20191;-77
2023/06/16 00:41:31;;;;;;;7.90;4.10;;;;;;;17.33;85.89;99102.56;5109058;28;20195;-77
2023/06/16 00:43:59;;;;;;;4.77;4.20;;;;;;;17.46;85.25;99103.09;5106330;28;20203;-77
2023/06/16 00:46:30;;;;;;;5.37;4.23;;;;;;;17.40;86.05;99102.84;5111585;28;20191;-77
2023/06/16 00:49:00;;;;;;;7.27;4.60;;;;;;;17.35;88.22;99099.72;5110080;28;20191;-77
2023/06/16 00:51:30;;;;;;;10.23;4.50;;;;;;;17.23;89.37;99107.06;5106485;28;20228;-77
2023/06/16 00:53:59;;;;;;;6.53;4.57;;;;;;;17.22;89.78;99100.03;5102929;28;20646;-76
2023/06/16 00:56:28;;;;;;;8.30;4.30;;;;;;;17.20;91.09;99091.31;5114103;28;20222;-77
2023/06/16 00:59:03;;;;;;;6.73;4.30;;;;;;;17.22;92.36;99100.03;5103793;28;20653;-77
2023/06/16 01:01:34;;;;;;;5.73;4.20;;;;;;;17.26;93.15;99095.22;5114331;28;20191;-77
2023/06/16 01:04:03;;;;;;;7.53;5.10;;;;;;;17.25;93.90;99096.22;5078356;28;20199;-77
2023/06/16 01:06:57;;;;;;;5.67;4.40;;;;;;;17.22;92.12;99092.00;5107394;28;20203;-77
2023/06/16 01:09:33;;;;;;;5.77;4.33;;;;;;;17.27;91.93;99091.56;5105730;28;20262;-77
2023/06/16 01:12:11;;;;;;;5.70;3.80;;;;;;;17.25;90.98;99086.34;5108639;28;20209;-77
2023/06/16 01:14:49;;;;;;;5.30;3.97;;;;;;;17.20;91.42;99085.94;5107290;28;20206;-77
2023/06/16 01:17:21;;;;;;;6.67;4.47;;;;;;;17.10;93.01;99093.97;5113979;28;20218;-77
2023/06/16 01:19:57;;;;;;;5.87;4.27;;;;;;;17.12;93.76;99100.03;5105863;28;20202;-77
2023/06/16 01:22:41;;;;;;;5.17;4.00;;;;;;;17.06;95.23;99095.22;5112196;28;20538;-77
2023/06/16 01:25:15;;;;;;;7.10;4.60;;;;;;;16.82;96.96;99092.97;5024204;28;20216;-77
2023/06/16 01:27:47;;;;;;;8.67;4.70;;;;;;;16.94;98.90;99100.88;5028624;28;20664;-77
2023/06/16 01:30:19;;;;;;;6.33;4.43;;;;;;;16.93;100.00;99094.69;5024590;28;20277;-76
2023/06/16 01:32:49;;;;;;;10.07;4.50;;;;;;;16.83;100.00;99093.81;5031113;28;20205;-77
2023/06/16 01:35:19;;;;;;;8.23;4.70;;;;;;;16.65;100.00;99095.47;4957446;28;20269;-77
2023/06/16 01:37:50;;;;;;;8.70;4.80;;;;;;;16.92;100.00;99098.34;4968062;28;20239;-77
2023/06/16 01:40:21;;;;;;;9.30;5.17;;;;;;;16.88;100.00;99096.91;4972073;28;20220;-77
2023/06/16 01:42:52;;;;;;;6.10;5.17;;;;;;;16.91;100.00;99099.34;4972100;28;20223;-77
2023/06/16 01:45:21;;;;;;;5.30;4.40;;;;;;;17.00;100.00;99103.84;4969332;28;20215;-77
2023/06/16 01:47:51;;;;;;;9.03;4.60;;;;;;;16.98;100.00;99087.06;4972144;28;20231;-77
2023/06/16 01:50:20;;;;;;;7.03;4.47;;;;;;;16.84;100.00;99092.84;5022032;28;20232;-77
2023/06/16 01:52:48;;;;;;;9.97;5.30;;;;;;;16.80;100.00;99089.59;5059808;27;20206;-77
2023/06/16 01:55:17;;;;;;;9.83;5.30;;;;;;;16.72;100.00;99096.63;5126850;27;20202;-76
2023/06/16 01:57:47;;;;;;;9.00;5.60;;;;;;;16.68;100.00;99095.16;5125781;27;20210;-77
2023/06/16 02:00:20;;;;;;;8.83;5.00;;;;;;;16.62;100.00;99085.03;5123817;27;20198;-77
2023/06/16 02:02:52;;;;;;;6.70;4.93;;;;;;;16.66;100.00;99083.78;5124648;27;20205;-77
2023/06/16 02:05:25;;;;;;;7.80;5.50;;;;;;;16.65;100.00;99084.75;5128866;27;20198;-77
2023/06/16 02:07:58;;;;;;;5.27;4.60;;;;;;;16.63;100.00;99097.44;5119115;27;20269;-77
2023/06/16 02:10:28;;;;;;;6.47;4.57;;;;;;;16.74;100.00;99095.50;5123269;27;20217;-77
2023/06/16 02:12:58;;;;;;;7.70;5.33;;;;;;;16.79;100.00;99092.41;5122590;27;20239;-78
2023/06/16 02:15:27;;;;;;;7.10;4.97;;;;;;;16.81;100.00;99088.63;5126004;27;20206;-77
2023/06/16 02:17:58;;;;;;;9.67;4.73;;;;;;;16.77;100.00;99081.00;5133465;27;20249;-77
2023/06/16 02:20:27;;;;;;;6.50;4.70;;;;;;;16.70;100.00;99088.75;5123406;27;20226;-77
2023/06/16 02:22:55;;;;;;;8.40;4.80;;;;;;;16.55;100.00;99098.13;5115926;28;20197;-77
2023/06/16 02:25:25;;;;;;;6.43;5.20;;;;;;;16.62;100.00;99093.06;5128871;28;20217;-77
2023/06/16 02:27:54;;;;;;;7.07;4.50;;;;;;;16.58;100.00;99090.66;5124379;28;20200;-77
2023/06/16 02:30:24;;;;;;;8.37;4.93;;;;;;;16.49;100.00;99095.97;5124213;28;20221;-77
2023/06/16 02:32:53;;;;;;;9.43;5.13;;;;;;;16.50;100.00;99100.34;5115184;28;20291;-77
2023/06/16 02:35:30;;;;;;;6.70;4.97;;;;;;;16.31;100.00;99098.50;5127333;27;20305;-77
2023/06/16 02:37:58;;;;;;;8.97;5.60;;;;;;;16.40;100.00;99096.78;5117448;28;20272;-77
2023/06/16 02:40:27;;;;;;;6.43;5.00;;;;;;;16.16;100.00;99094.47;5124198;28;20198;-77
2023/06/16 02:42:55;;;;;;;9.40;5.00;;;;;;;16.19;100.00;99100.38;5122022;28;20194;-77
2023/06/16 02:45:25;;;;;;;7.90;4.80;;;;;;;16.26;100.00;99098.03;5129629;28;20244;-77
2023/06/16 02:47:53;;;;;;;9.83;5.20;;;;;;;16.10;100.00;99097.69;5128893;28;20198;-77
2023/06/16 02:50:22;;;;;;;9.23;5.77;;;;;;;16.03;100.00;99106.25;5126383;28;20190;-77
2023/06/16 02:52:51;;;;;;;6.57;4.63;;;;;;;16.00;100.00;99100.31;5129109;28;20195;-77
2023/06/16 02:55:20;;;;;;;6.73;5.30;;;;;;;16.08;100.00;99107.66;5121006;27;20183;-77
2023/06/16 02:57:49;;;;;;;14.27;5.07;;;;;;;16.02;100.00;99106.41;5118021;27;20214;-77
2023/06/16 03:00:19;;;;;;;5.53;4.57;;;;;;;16.12;100.00;99106.44;5126236;27;20203;-77
2023/06/16 03:02:50;;;;;;;5.73;4.43;;;;;;;16.13;100.00;99100.09;5134452;27;20193;-77
2023/06/16 03:05:19;;;;;;;7.60;5.17;;;;;;;16.28;100.00;99110.28;5130466;27;20190;-77
2023/06/16 03:07:47;;;;;;;7.17;5.00;;;;;;;16.19;100.00;99108.41;5125376;27;20198;-77
2023/06/16 03:10:16;;;;;;;8.73;5.50;;;;;;;16.20;100.00;99106.56;5131358;27;20210;-77
2023/06/16 03:12:46;;;;;;;5.67;4.80;;;;;;;16.06;100.00;99104.28;5129268;27;20187;-77
2023/06/16 03:15:15;;;;;;;6.80;5.03;;;;;;;16.13;100.00;99100.94;5121174;27;20225;-77
2023/06/16 03:17:47;;;;;;;9.47;5.40;;;;;;;16.08;100.00;99103.16;5126570;27;20214;-77
2023/06/16 03:20:17;;;;;;;9.23;5.37;;;;;;;16.03;100.00;99105.41;5128178;27;20202;-77
2023/06/16 03:22:47;;;;;;;6.50;5.07;;;;;;;16.10;100.00;99111.03;5135386;27;20198;-77
2023/06/16 03:25:15;;;;;;;6.27;4.60;;;;;;;15.88;100.00;99112.06;5130948;27;20202;-77
2023/06/16 03:27:43;;;;;;;7.37;4.83;;;;;;;15.70;100.00;99109.16;5129310;27;20194;-77
2023/06/16 03:30:12;;;;;;;7.27;5.33;;;;;;;15.83;100.00;99111.66;5132274;27;20212;-77
2023/06/16 03:32:44;;;;;;;6.53;5.07;;;;;;;15.63;100.00;99114.19;5128120;27;20229;-77
2023/06/16 03:35:13;;;;;;;5.70;4.43;;;;;;;15.65;100.00;99116.72;5125935;27;20238;-76
2023/06/16 03:37:43;;;;;;;7.93;5.37;;;;;;;15.55;100.00;99113.13;5132393;27;20287;-77
2023/06/16 03:40:12;;;;;;;10.50;5.80;;;;;;;15.60;100.00;99109.09;5126034;27;20713;-77
2023/06/16 03:42:41;;;;;;;8.03;5.43;;;;;;;15.61;100.00;99110.78;5133507;27;20217;-76
2023/06/16 03:45:10;;;;;;;6.93;4.93;;;;;;;15.43;100.00;99113.16;5128892;27;20201;-77
2023/06/16 03:47:38;;;;;;;7.03;4.70;;;;;;;15.49;100.00;99108.31;5133072;27;20218;-77
2023/06/16 03:50:07;;;;;;;9.47;5.57;;;;;;;15.37;100.00;99105.69;5127189;27;20701;-76
2023/06/16 03:52:35;;;;;;;6.93;5.50;;;;;;;15.36;100.00;99108.50;5123296;27;20195;-76
2023/06/16 03:55:06;;;;;;;6.90;4.97;;;;;;;15.65;100.00;99114.06;5128750;27;20190;-77
2023/06/16 03:57:35;;;;;;;6.53;5.03;;;;;;;15.66;100.00;99116.59;5127667;27;20205;-77
2023/06/16 04:00:08;;;;;;;5.90;4.87;;;;;;;15.69;100.00;99110.97;5128282;27;20669;-77
2023/06/16 04:02:37;;;;;;;6.60;5.77;;;;;;;15.52;100.00;99116.88;5133571;27;20277;-77
2023/06/16 04:05:08;;;;;;;7.73;5.60;;;;;;;15.48;100.00;99112.78;5128987;27;20218;-77
2023/06/16 04:07:36;;;;;;;7.07;5.33;;;;;;;15.38;100.00;99114.56;5064698;28;20200;-77
2023/06/16 04:10:08;;;;;;;7.93;5.00;;;;;;;15.39;100.00;99119.75;5059436;28;20216;-77
2023/06/16 04:12:36;;;;;;;9.23;5.47;;;;;;;15.17;100.00;99118.06;5062121;28;20698;-77
2023/06/16 04:15:05;;;;;;;11.47;5.90;;;;;;;15.09;100.00;99117.84;5061680;28;20224;-77
2023/06/16 04:17:33;;;;;;;7.67;5.10;;;;;;;15.27;100.00;99120.78;5062010;28;20227;-77
2023/06/16 04:20:05;;;;;;;6.53;5.33;;;;;;;15.24;100.00;99121.03;5068155;28;20189;-77
2023/06/16 04:22:33;;;;;;;11.03;5.40;;;;;;;15.41;100.00;99120.47;5062816;28;20196;-77
2023/06/16 04:25:02;;;;;;;7.93;5.57;;;;;;;15.51;100.00;99117.88;5063376;28;20204;-77
2023/06/16 04:27:32;;;;;;;6.90;5.47;;;;;;;15.51;100.00;99122.34;5065908;28;20193;-77
2023/06/16 04:30:02;;;;;;;9.97;5.57;;;;;;;15.52;100.00;99124.03;5064623;28;20197;-77
2023/06/16 04:32:32;;;;;;;8.83;5.87;;;;;;;15.63;100.00;99129.34;5103686;27;20202;-77
2023/06/16 04:35:04;;;;;;;7.23;5.30;;;;;;;15.76;100.00;99123.81;5120991;27;20240;-77
2023/06/16 04:37:34;;;;;;;8.87;5.40;;;;;;;15.72;100.00;99125.88;5094749;27;20191;-77
2023/06/16 04:40:04;;;;;;;8.60;5.67;;;;;;;15.94;100.00;99122.25;5126776;27;20218;-77
2023/06/16 04:42:36;;;;;;;10.30;6.03;;;;;;;15.94;100.00;99115.06;5131961;27;20233;-76
2023/06/16 04:45:07;;;;;;;6.03;4.93;;;;;;;16.00;100.00;99119.84;5128677;27;20203;-76
2023/06/16 04:47:35;;;;;;;7.83;4.90;;;;;;;16.17;100.00;99115.72;5126144;27;20613;-76
2023/06/16 04:50:08;;;;;;;7.40;5.70;;;;;;;16.23;100.00;99106.34;5124112;27;20229;-77
2023/06/16 04:52:39;;;;;;;7.50;5.40;;;;;;;16.24;100.00;99110.69;5070903;28;20228;-76
2023/06/16 04:55:10;;;;;;;9.07;4.97;;;;;;;16.31;100.00;99107.34;5061453;28;20196;-76
2023/06/16 04:57:47;;;;;;;6.43;4.90;;;;;;;16.34;100.00;99116.06;5059562;28;20199;-76
2023/06/16 05:00:16;;;;;;;7.83;5.17;;;;;;;16.34;100.00;99114.25;5065409;28;20239;-76
2023/06/16 05:02:45;;;;;;;10.33;5.47;;;;;;;16.46;100.00;99113.16;5061852;28;20276;-76
2023/06/16 05:05:13;;;;;;;8.23;5.10;;;;;;;16.60;100.00;99114.59;5061815;28;20202;-77
2023/06/16 05:07:42;;;;;;;6.73;5.50;;;;;;;16.62;100.00;99104.63;5067783;28;20192;-76
2023/06/16 05:10:11;;;;;;;11.23;4.93;;;;;;;16.65;100.00;99114.19;5065273;28;20242;-76
2023/06/16 05:12:41;;;;;;;7.73;4.97;;;;;;;16.88;100.00;99112.97;5066326;28;20203;-76
2023/06/16 05:15:10;;;;;;;6.53;4.87;;;;;;;16.86;100.00;99110.44;5058484;28;20208;-77
2023/06/16 05:17:39;;;;;;;6.73;4.73;;;;;;;16.94;100.00;99104.41;5062079;28;20185;-77
2023/06/16 05:20:08;;;;;;;6.43;5.03;;;;;;;16.94;100.00;99109.75;5065704;28;20216;-77
2023/06/16 05:22:37;;;;;;;7.43;5.20;;;;;;;16.94;100.00;99098.19;5065569;28;20211;-77
2023/06/16 05:25:06;;;;;;;7.70;5.03;;;;;;;17.04;100.00;99102.56;5060347;28;20206;-77
2023/06/16 05:27:34;;;;;;;6.23;5.10;;;;;;;17.24;100.00;99098.06;5062038;28;20206;-77
2023/06/16 05:30:05;;;;;;;7.60;5.00;;;;;;;17.33;100.00;99105.22;5088969;27;20191;-76
2023/06/16 05:32:34;;;;;;;9.17;5.20;;;;;;;17.40;100.00;99105.53;5082188;27;20194;-76
2023/06/16 05:35:03;;;;;;;7.27;4.90;;;;;;;17.38;100.00;99104.81;5127907;27;20250;-76
2023/06/16 05:37:31;;;;;;;6.37;4.83;;;;;;;17.58;100.00;99101.13;5122917;27;20204;-77
2023/06/16 05:40:02;;;;;;;8.90;4.60;;;;;;;17.64;100.00;99103.22;5124443;27;20711;-77
2023/06/16 05:42:30;;;;;;;5.87;4.60;;;;;;;17.62;100.00;99099.84;5129478;27;20269;-77
2023/06/16 05:44:59;;;;;;;7.20;4.53;;;;;;;17.77;100.00;99099.44;5125674;27;20205;-76
2023/06/16 05:47:29;;;;;;;7.07;4.57;;;;;;;17.95;100.00;99106.56;5134217;27;20218;-77
2023/06/16 05:49:59;;;;;;;7.67;4.87;;;;;;;17.99;100.00;99096.38;5126703;27;20314;-77
2023/06/16 05:52:29;;;;;;;11.93;5.37;;;;;;;17.82;100.00;99102.50;5127057;27;20186;-76
2023/06/16 05:54:58;;;;;;;7.90;4.70;;;;;;;17.95;100.00;99101.19;5121357;27;20194;-77
2023/06/16 05:57:26;;;;;;;10.07;4.70;;;;;;;17.93;100.00;99105.00;5127367;27;20190;-77
2023/06/16 05:59:55;;;;;;;9.03;5.20;;;;;;;18.13;100.00;99113.81;5127322;27;20249;-76
2023/06/16 06:02:24;;;;;;;5.00;4.37;;;;;;;18.35;100.00;99116.13;5133911;27;20186;-76
2023/06/16 06:04:55;;;;;;;7.00;4.60;;;;;;;18.40;100.00;99110.31;5130783;27;20194;-77
2023/06/16 06:07:25;;;;;;;8.77;4.77;;;;;;;18.68;100.00;99114.69;5124353;27;20225;-77
2023/06/16 06:09:54;;;;;;;6.70;4.70;;;;;;;18.82;100.00;99118.72;5123848;27;20198;-77
2023/06/16 06:12:24;;;;;;;6.63;4.50;;;;;;;18.84;100.00;99117.56;5127297;27;20201;-77
2023/06/16 06:14:52;;;;;;;5.23;4.23;;;;;;;18.98;100.00;99120.72;5057058;28;20185;-76
2023/06/16 06:17:21;;;;;;;7.17;4.33;;;;;;;19.20;100.00;99119.41;5066085;28;20239;-77
2023/06/16 06:19:49;;;;;;;6.33;4.37;;;;;;;19.36;100.00;99124.94;5064199;28;20346;-77
2023/06/16 06:22:21;;;;;;;5.53;4.40;;;;;;;19.49;100.00;99120.00;5059481;28;20586;-77
2023/06/16 06:24:49;;;;;;;5.73;4.40;;;;;;;19.39;100.00;99129.97;5067713;28;20192;-77
2023/06/16 06:27:19;;;;;;;5.97;4.20;;;;;;;19.63;98.66;99129.38;5060317;28;20201;-77
2023/06/16 06:29:48;;;;;;;7.07;4.70;;;;;;;19.71;97.58;99126.75;5059069;28;20254;-76
2023/06/16 06:32:16;;;;;;;7.83;4.37;;;;;;;19.75;98.38;99138.88;5065665;28;20235;-77
2023/06/16 06:34:45;;;;;;;8.93;4.30;;;;;;;19.47;98.88;99139.97;5067137;28;20714;-76
2023/06/16 06:37:16;;;;;;;4.83;4.30;;;;;;;19.77;97.10;99136.84;5067740;28;20498;-77
2023/06/16 06:39:46;;;;;;;6.13;4.50;;;;;;;19.89;95.92;99142.84;5068981;28;20220;-77
2023/06/16 06:42:15;;;;;;;9.33;4.33;;;;;;;20.00;97.70;99147.97;5029876;28;20251;-76
2023/06/16 06:44:44;;;;;;;7.60;4.43;;;;;;;20.33;97.32;99142.75;4985569;28;20202;-77
2023/06/16 06:47:12;;;;;;;10.07;4.10;;;;;;;20.35;94.02;99140.72;5008687;28;20651;-77
2023/06/16 06:49:41;;;;;;;7.57;4.27;;;;;;;20.21;94.63;99148.41;5010852;28;20226;-77
2023/06/16 06:52:10;;;;;;;4.65;3.97;;;;;;;20.42;95.09;99144.47;5007448;28;20657;-77
2023/06/16 06:54:38;;;;;;;5.38;4.32;;;;;;;20.38;93.49;99145.81;5011836;28;20223;-77
2023/06/16 06:57:09;;;;;;;7.50;4.50;;;;;;;20.45;92.40;99155.78;5009087;28;20657;-76
2023/06/16 06:59:38;;;;;;;6.60;4.20;;;;;;;20.53;93.46;99145.06;5008859;28;20216;-77
2023/06/16 07:02:07;;;;;;;6.60;4.53;;;;;;;20.68;92.03;99152.53;5030462;28;20680;-77
2023/06/16 07:04:38;;;;;;;6.90;4.50;;;;;;;20.40;94.16;99151.88;5044286;28;20197;-77
2023/06/16 07:07:07;;;;;;;5.73;4.20;;;;;;;20.25;94.55;99152.47;5047186;28;20195;-77
2023/06/16 07:09:36;;;;;;;5.60;4.13;;;;;;;20.63;94.90;99146.78;5041289;28;20197;-76
2023/06/16 07:12:04;;;;;;;5.80;4.30;;;;;;;20.82;93.04;99155.44;5050926;28;20227;-77
2023/06/16 07:14:35;;;;;;;7.78;4.32;;;;;;;20.90;90.30;99160.00;5047415;28;20244;-77
2023/06/16 07:17:04;;;;;;;7.17;4.17;;;;;;;20.90;90.63;99159.16;5047056;28;20311;-77
2023/06/16 07:19:32;;;;;;;6.00;4.00;;;;;;;21.21;91.14;99157.53;5048415;28;20189;-77
2023/06/16 07:22:01;;;;;;;6.85;4.47;;;;;;;21.20;88.57;99155.00;5044678;28;20212;-77
2023/06/16 07:24:30;;;;;;;6.55;4.32;;;;;;;21.32;86.65;99153.69;5044642;28;20201;-77
2023/06/16 07:27:01;;;;;;;5.50;4.40;;;;;;;21.38;85.26;99167.38;5099490;27;20205;-77
2023/06/16 07:29:29;;;;;;;7.93;4.30;;;;;;;21.36;84.75;99166.69;5131045;27;20281;-77
2023/06/16 07:31:59;;;;;;;5.68;4.53;;;;;;;21.40;84.39;99167.19;5120973;27;20190;-77
2023/06/16 07:34:28;;;;;;;4.47;4.05;;;;;;;21.53;85.23;99164.03;5128410;27;20232;-76
2023/06/16 07:36:56;;;;;;;7.72;4.03;;;;;;;21.50;84.52;99165.19;5115700;27;20273;-77
2023/06/16 07:39:24;;;;;;;5.65;3.75;;;;;;;21.76;84.95;99161.47;5128640;27;20194;-77
2023/06/16 07:41:53;;;;;;;4.72;3.90;;;;;;;22.04;84.26;99162.78;5131594;27;20205;-77
2023/06/16 07:44:21;;;;;;;5.93;3.97;;;;;;;22.12;80.32;99165.50;5127529;27;20226;-76
2023/06/16 07:46:51;;;;;;;9.50;4.00;;;;;;;22.22;79.62;99158.06;5119673;27;20193;-77
2023/06/16 07:49:21;;;;;;;8.13;4.15;;;;;;;;;;5121539;27;20199;-77
2023/06/16 07:51:52;;;;;;;6.40;4.10;;;;;;;22.30;81.04;99161.78;5136182;27;20190;-76
2023/06/16 07:54:20;;;;;;;5.88;4.60;;;;;;;22.19;80.77;99160.25;5127296;27;20205;-77
2023/06/16 07:56:50;;;;;;;7.88;4.55;;;;;;;22.36;77.11;99169.16;5130906;27;20190;-77
2023/06/16 07:59:21;;;;;;;4.13;3.80;;;;;;;22.39;74.38;99158.88;5128644;27;20191;-77
2023/06/16 08:01:51;;;;;;;6.65;4.38;;;;;;;22.56;75.16;99160.47;5131208;27;20294;-77
2023/06/16 08:04:21;;;;;;;4.90;4.00;;;;;;;22.68;73.93;99158.25;5128064;27;20637;-77
2023/06/16 08:06:50;;;;;;;6.38;4.07;;;;;;;22.54;71.04;99154.41;5130166;27;20281;-77
2023/06/16 08:09:18;;;;;;;6.30;4.30;;;;;;;22.50;68.72;99160.34;5129806;27;20194;-77
2023/06/16 08:11:47;;;;;;;7.50;4.45;;;;;;;22.81;68.62;99161.22;5116248;27;20205;-77
2023/06/16 08:14:15;;;;;;;13.02;4.57;;;;;;;22.64;71.27;99156.06;5132189;27;20201;-77
2023/06/16 08:16:43;;;;;;;4.68;4.13;;;;;;;22.73;73.52;99153.16;5131437;27;20199;-77
2023/06/16 08:19:12;;;;;;;5.03;4.07;;;;;;;22.80;69.56;99151.44;5130691;27;20228;-77
2023/06/16 08:21:42;;;;;;;7.45;4.25;;;;;;;22.96;65.53;99158.63;5132029;27;20283;-77
2023/06/16 08:24:10;;;;;;;5.65;4.15;;;;;;;23.17;66.94;99149.91;5123286;27;20194;-77
2023/06/16 08:26:39;;;;;;;6.68;4.20;;;;;;;23.19;65.63;99155.97;5129733;27;20705;-77
2023/06/16 08:29:10;;;;;;;5.40;3.90;;;;;;;23.26;65.03;99151.53;5123421;27;20243;-78
2023/06/16 08:31:39;;;;;;;5.00;3.95;;;;;;;23.17;64.64;99155.31;5132559;27;20859;-77
2023/06/16 08:34:08;;;;;;;7.68;4.63;;;;;;;23.36;64.97;99151.31;5127493;27;20594;-77
2023/06/16 08:36:36;;;;;;;5.50;4.07;;;;;;;23.48;60.36;99149.00;5128950;27;20241;-77
2023/06/16 08:39:07;;;;;;;4.68;4.10;;;;;;;23.52;59.33;99147.63;5128207;27;20557;-77
2023/06/16 08:41:37;;;;;;;6.93;4.30;;;;;;;23.63;60.53;99150.75;5126658;27;20214;-77
2023/06/16 08:44:08;;;;;;;4.85;3.90;;;;;;;23.80;54.72;99146.03;5132386;27;20278;-77
2023/06/16 08:46:38;;;;;;;5.75;3.97;;;;;;;23.87;58.17;99149.72;5130173;27;20235;-77
2023/06/16 08:49:06;;;;;;;5.50;4.30;;;;;;;23.81;57.73;99155.84;5129439;27;20285;-77
2023/06/16 08:51:37;;;;;;;4.97;3.92;;;;;;;23.89;57.21;99155.78;5122576;27;20214;-77
2023/06/16 08:54:12;;;;;;;4.70;4.20;;;;;;;23.55;56.72;99158.94;5121863;27;20196;-77
2023/06/16 08:56:44;;;;;;;7.10;4.28;;;;;;;23.69;53.67;99158.16;5125153;27;20290;-77
2023/06/16 08:59:14;;;;;;;5.68;3.90;;;;;;;23.60;52.79;99155.69;5128430;27;20228;-77
2023/06/16 09:01:43;;;;;;;6.15;3.63;;;;;;;23.80;50.03;99161.44;5127317;27;20250;-77
2023/06/16 09:04:13;;;;;;;5.70;3.75;;;;;;;24.23;49.67;99159.84;5130163;27;20198;-77
2023/06/16 09:06:45;;;;;;;5.47;4.00;;;;;;;24.14;48.57;99156.38;5118475;27;20554;-77
2023/06/16 09:09:17;;;;;;;6.72;3.75;;;;;;;24.14;46.03;99158.25;5128929;27;20194;-77
2023/06/16 09:12:03;;;;;;;5.00;3.70;;;;;;;24.20;44.81;99157.50;5123864;27;20270;-77
2023/06/16 09:14:33;;;;;;;7.28;3.78;;;;;;;24.19;47.25;99151.25;5121656;27;20198;-77
2023/06/16 09:17:05;;;;;;;5.20;4.30;;;;;;;24.44;47.55;99145.59;5124659;27;20264;-76
2023/06/16 09:19:35;;;;;;;6.35;3.95;;;;;;;24.46;46.85;99146.25;5113069;27;20201;-77
2023/06/16 09:22:04;;;;;;;5.18;3.85;;;;;;;24.97;46.12;99148.97;5128530;27;20222;-77
2023/06/16 09:24:35;;;;;;;4.05;3.53;;;;;;;25.16;44.41;99142.13;5131066;27;20277;-78
2023/06/16 09:27:06;;;;;;;8.38;3.63;;;;;;;24.54;45.52;99138.03;5129945;27;20258;-78
2023/06/16 09:29:38;;;;;;;4.53;3.55;;;;;;;25.10;45.09;99141.88;5124606;27;20191;-78
2023/06/16 09:32:10;;;;;;;5.97;3.80;;;;;;;25.23;44.44;99133.03;5126135;27;20216;-78
2023/06/16 09:34:39;;;;;;;5.78;3.90;;;;;;;24.77;45.16;99137.88;5133551;27;20191;-77
2023/06/16 09:37:07;;;;;;;6.82;3.50;;;;;;;25.38;46.79;99144.66;5123676;27;20365;-77
2023/06/16 09:39:37;;;;;;;5.97;3.75;;;;;;;25.56;44.98;99136.03;5128438;27;20199;-78
2023/06/16 09:42:13;;;;;;;6.05;3.67;;;;;;;25.72;44.17;99126.00;5133127;27;20224;-78
2023/06/16 09:44:42;;;;;;;6.25;3.70;;;;;;;25.08;44.92;99129.50;5125945;27;20190;-77
2023/06/16 09:47:14;;;;;;;7.82;4.20;;;;;;;25.45;44.27;99130.31;5122445;27;20206;-77
2023/06/16 09:49:45;;;;;;;9.80;3.90;;;;;;;25.93;45.37;99128.66;5133340;27;20253;-77
2023/06/16 09:52:17;;;;;;;4.65;3.60;;;;;;;26.21;46.30;99125.91;5127978;27;20190;-77
2023/06/16 09:54:47;;;;;;;5.55;3.72;;;;;;;26.33;44.17;99132.47;5130459;27;20186;-77
2023/06/16 09:57:26;;;;;;;7.32;4.30;;;;;;;26.35;43.33;99118.72;5127225;27;20200;-77
2023/06/16 09:59:55;;;;;;;5.22;4.00;;;;;;;25.78;44.65;99122.50;5130369;27;20186;-76
2023/06/16 10:02:24;;;;;;;5.47;3.90;;;;;;;24.67;45.44;99121.91;5125347;27;20221;-77
2023/06/16 10:04:56;;;;;;;4.75;4.00;;;;;;;25.19;45.92;99120.03;5128071;27;20668;-77
2023/06/16 10:07:26;;;;;;;4.20;3.80;;;;;;;25.49;44.02;99118.06;5127774;27;20786;-77
2023/06/16 10:10:00;;;;;;;5.18;3.85;;;;;;;25.69;44.82;99110.91;5023109;28;20765;-77
2023/06/16 10:12:35;;;;;;;4.78;4.05;;;;;;;26.34;44.37;99119.72;5029163;28;20208;-77
2023/06/16 10:15:05;;;;;;;7.85;4.05;;;;;;;25.83;44.93;99107.28;5026050;28;20190;-77
2023/06/16 10:17:33;;;;;;;5.97;4.07;;;;;;;25.84;45.32;99116.25;4951298;28;20292;-76
2023/06/16 10:20:05;;;;;;;6.13;4.15;;;;;;;25.85;45.02;99115.22;4944944;28;20209;-77
2023/06/16 10:22:33;;;;;;;5.95;4.32;;;;;;;26.23;44.51;99107.53;4869441;29;20253;-77
2023/06/16 10:25:04;;;;;;;6.32;4.20;;;;;;;26.86;43.96;99112.91;4875803;29;20203;-77
2023/06/16 10:27:34;;;;;;;6.50;4.38;;;;;;;27.31;42.77;99095.00;4897434;28;20227;-77
2023/06/16 10:30:04;;;;;;;5.95;4.20;;;;;;;27.16;41.29;99106.09;4967183;28;20206;-78
2023/06/16 10:32:33;;;;;;;6.45;4.47;;;;;;;27.62;40.73;99100.72;4890498;29;20199;-77
2023/06/16 10:35:01;;;;;;;5.43;4.05;;;;;;;27.97;39.41;99105.09;4893874;29;20235;-78
2023/06/16 10:37:30;;;;;;;7.25;4.10;;;;;;;26.95;41.03;99098.91;4890155;29;20202;-77
2023/06/16 10:40:04;;;;;;;6.13;3.78;;;;;;;26.75;43.34;99100.72;4906312;28;20203;-77
2023/06/16 10:42:41;;;;;;;6.30;3.80;;;;;;;26.56;44.22;99098.78;5007580;28;20216;-77
2023/06/16 10:45:26;;;;;;;5.90;4.30;;;;;;;25.49;45.03;99102.63;5019555;28;20193;-77
2023/06/16 10:47:58;;;;;;;4.55;4.15;;;;;;;26.56;42.86;99094.19;5029601;28;20208;-77
2023/06/16 10:50:32;;;;;;;6.07;4.25;;;;;;;27.14;38.69;99093.75;5059685;27;20198;-77
2023/06/16 10:53:11;;;;;;;5.05;4.00;;;;;;;27.72;37.57;99088.59;5120459;27;20213;-77
2023/06/16 10:55:42;;;;;;;5.65;4.13;;;;;;;27.18;37.68;99089.56;5123510;27;20198;-77
2023/06/16 10:58:26;;;;;;;7.32;4.28;;;;;;;26.84;39.65;99085.91;5124219;27;20194;-76
2023/06/16 11:01:04;;;;;;;6.72;4.20;;;;;;;26.27;39.34;99094.44;5126834;28;20200;-76
2023/06/16 11:03:44;;;;;;;6.13;4.10;;;;;;;26.22;39.98;99089.56;5123423;27;20224;-77
2023/06/16 11:06:13;;;;;;;6.07;3.75;;;;;;;26.32;40.37;99090.06;5125459;27;20263;-77
2023/06/16 11:08:52;;;;;;;7.63;4.53;;;;;;;26.17;40.86;99089.34;5126373;27;20186;-77
2023/06/16 11:11:21;;;;;;;4.70;4.05;;;;;;;25.64;41.86;99092.50;5125633;28;20206;-77
2023/06/16 11:13:53;;;;;;;5.22;4.00;;;;;;;26.10;41.69;99089.31;5133221;27;20277;-77
2023/06/16 11:16:22;;;;;;;5.00;3.85;;;;;;;26.13;42.93;99091.63;5120309;27;20203;-77
2023/06/16 11:18:51;;;;;;;6.18;4.22;;;;;;;25.78;43.93;99081.78;5051078;28;20291;-77
2023/06/16 11:21:19;;;;;;;6.10;4.00;;;;;;;25.73;42.71;99081.53;5042071;28;20197;-77
2023/06/16 11:23:48;;;;;;;5.65;3.85;;;;;;;25.07;43.59;99098.84;5042695;28;20221;-77
2023/06/16 11:26:18;;;;;;;7.43;3.55;;;;;;;24.80;44.20;99099.56;5039196;28;20197;-77
2023/06/16 11:28:48;;;;;;;5.72;3.80;;;;;;;24.52;44.59;99096.75;4992648;28;20733;-77
2023/06/16 11:31:20;;;;;;;5.45;3.60;;;;;;;24.28;46.09;99084.31;4987300;28;20655;-77
2023/06/16 11:33:50;;;;;;;5.32;3.63;;;;;;;24.07;45.50;99095.88;4988687;28;20290;-77
2023/06/16 11:36:21;;;;;;;9.40;4.00;;;;;;;24.18;47.22;99091.88;5006030;28;20220;-77
2023/06/16 11:38:56;;;;;;;6.55;3.78;;;;;;;24.01;45.92;99093.06;5068808;28;20190;-77
2023/06/16 11:41:29;;;;;;;5.45;3.63;;;;;;;24.05;45.64;99097.94;4970637;28;20200;-77
2023/06/16 11:43:59;;;;;;;4.10;3.70;;;;;;;23.87;47.71;99098.31;4970712;28;20219;-77